EDDHETNL

Guest
Details From EDDH - Hamburg
To ETNL - Laage
Flight Number -
Tags Generated
Created
Modified
Stats Distance 83 nm / 153 km
Max Altitude 0 ft / 0 m
Waypoints 2
Social Downloads 0
Likes 0
Share VATSIM

Download

Looking for another format? Having issues loading an existing format? Contact us
Advertisement - Login to hide

Notes

Generated

Route

EDDH ETNL

ID Type Via Altitude Latitude Longitude Leg Dist Tot Dist Heading (true) Name
O EDDH APT - 0 ft / 0 m 53.65441˚ 9.97521˚ - 0 nm - -
O ETNL APT - 0 ft / 0 m 53.91967˚ 12.26033˚ 82 nm 82 nm 78° / 80° -

Altitude Profile

Advertisement - Login to hide

EDDH

Details ICAO EDDH (HAM)
Name Hamburg
Region Germany - Civil
Timezone Europe/Berlin (UTC+2.0)
Stats Elevation 53 ft / 16 m (AMSL)
Location 53.633665° 9.985235°
Runways 2
Magnetic Variation 2.848° E

METAR

EDDH 250520Z 08005KT 020V110 CAVOK 16/10 Q1022 NOSIG

Decode

TAF

TAF EDDH 242300Z 2500/2606 07008KT CAVOK BECMG 2507/2510 08013KT TEMPO 2510/2518 08015G25KT BECMG 2517/2520 05006KT

Decode

Departure Runways

ID Width Length Bearing (true) Bearing (mag) Surface Threshold Offset Overrun Length
05 151 ft / 46 m 10,647 ft / 3,245 m 50.18° 47.33° Asphalt 978 ft / 298 m 194 ft / 59 m
15 151 ft / 46 m 12,013 ft / 3,662 m 152.89° 150.04° Asphalt 0 ft / 0 m 194 ft / 59 m
23 151 ft / 46 m 10,647 ft / 3,245 m 230.22° 227.37° Asphalt 509 ft / 155 m 240 ft / 73 m
33 151 ft / 46 m 12,013 ft / 3,662 m 332.91° 330.06° Asphalt 1,463 ft / 446 m 164 ft / 50 m

ETNL

Details ICAO ETNL (RLG)
Name Laage
Region Germany - Military
Timezone Europe/Berlin (UTC+2.0)
Stats Elevation 138 ft / 42 m (AMSL)
Location 53.918084° 12.279250°
Runways 1
Magnetic Variation 3.581° E

METAR

ETNL 250520Z 07011KT 9999 FEW300 15/09 Q1023 BLU+BLU+

Decode

TAF

Not found

Destination Runways

ID Width Length Bearing (true) Bearing (mag) Surface Threshold Offset Overrun Length
10 148 ft / 45 m 8,213 ft / 2,503 m 98.07° 94.49° Concrete 0 ft / 0 m 1,001 ft / 305 m
28 148 ft / 45 m 8,213 ft / 2,503 m 278.10° 274.52° Concrete 0 ft / 0 m 1,001 ft / 305 m

Approach Navaids

Runway Type Ident Frequency Range Bearing (true) Bearing (mag) Slope Elevation
10 Localiser ILAE 108.55 MHz 18 nm / 33 km 97.79° 94.21° - 128 ft / 39 m (AMSL)
10 Glidescope ILAE 108.55 MHz 10 nm / 19 km 98.09° 94.51° 3.00° 186 ft / 57 m (AMSL)
28 Localiser ILAW 108.30 MHz 18 nm / 33 km 277.98° 274.40° - 157 ft / 48 m (AMSL)
28 Glidescope ILAW 108.30 MHz 10 nm / 19 km 278.09° 274.51° 3.00° 159 ft / 48 m (AMSL)

Popular Alternatives